METAR Data
IDs: Format: Raw Decoded Include TAF

Data at: 1152 UTC 23 Sep 2018

KAEX 231053Z 15003KT 9SM BKN005 23/23 A2990 RMK AO2 SLP127 T02330228
KAEX 231035Z 13005KT 8SM FEW004 23/22 A2989 RMK AO2 T02330222
KAEX 230953Z 14003KT 9SM CLR 23/23 A2990 RMK AO2 SLP127 T02330228
KAEX 230853Z 09003KT 9SM FEW100 23/22 A2990 RMK AO2 SLP128 T02330222 58012
KAEX 230753Z 10003KT 10SM CLR 23/22 A2992 RMK AO2 SLP134 T02330222
KAEX 230653Z 15003KT 9SM CLR 23/22 A2993 RMK AO2 SLP136 T02330222
KAEX 230553Z 13005KT 10SM FEW007 OVC095 24/23 A2994 RMK AO2 SLP140 T02390228 10250 20239 403220233 58001
KAEX 230508Z 13006KT 10SM SCT007 24/23 A2994 RMK AO2 T02390228
KAEX 230453Z 15006KT 10SM BKN007 BKN011 24/23 A2994 RMK AO2 SLP142 T02390228
KAEX 230432Z 12006KT 10SM BKN009 BKN017 24/23 A2994 RMK AO2 CIG 007V012 T02440228
KAEX 230429Z 12007KT 10SM SCT011 BKN017 24/23 A2994 RMK AO2 T02440228
KAEX 230420Z 11006KT 10SM FEW009 SCT017 24/23 A2994 RMK AO2 T02440228
KAEX 230418Z 11006KT 10SM BKN017 24/23 A2994 RMK AO2 T02440228
KAEX 230408Z 13005KT 10SM SCT017 24/23 A2994 RMK AO2 T02440228
KAEX 230353Z 09004KT 10SM BKN017 24/23 A2994 RMK AO2 SLP140 T02440228
KAEX 230301Z 10005KT 10SM OVC015 24/23 A2994 RMK AO2 T02440228
KAEX 230253Z 09004KT 10SM OVC013 24/23 A2994 RMK AO2 SLP141 T02440228 51010
KAEX 230236Z 10005KT 10SM BKN011 24/23 A2994 RMK AO2 T02390228
KAEX 230153Z 13004KT 10SM CLR 24/23 A2994 RMK AO2 SLP140 T02390228
KAEX 230053Z 13004KT 10SM FEW060 SCT090 BKN110 24/23 A2992 RMK AO2 SLP134 T02440228
KAEX 222353Z 14003KT 10SM CLR 25/23 A2991 RMK AO2 SLP130 60036 T02500228 10256 20233 57010
KAEX 222253Z 09005KT 10SM FEW055 SCT075 SCT100 26/23 A2992 RMK AO2 SLP133 T02560228
KAEX 222153Z 16004KT 10SM CLR 26/23 A2993 RMK AO2 RAE29 SLP138 P0000 T02560228
KAEX 222053Z 00000KT 10SM -RA FEW042 BKN095 OVC110 24/22 A2994 RMK AO2 LTG DSNT SE SLP141 P0002 60036 T02390222 58004
KAEX 222005Z 32004KT 5SM -RA BR SCT046 SCT070 OVC095 24/22 A2995 RMK AO2 P0001 T02390222
KAEX 221953Z 00000KT 2 1/2SM RA BR FEW043 BKN070 OVC110 23/22 A2995 RMK AO2 LTG DSNT NE SLP143 P0024 T02330222
KAEX 221908Z 23007KT 2 1/2SM -RA BR FEW022 BKN044 OVC055 24/22 A2996 RMK AO2 VIS 1V5 LTG DSNT N AND E P0011 T02390222
KAEX 221859Z 23007KT 3/4SM +RA BR FEW013 BKN029 OVC037 24/23 A2996 RMK AO2 LTG DSNT N P0010 T02440228
KAEX 221855Z 24007KT 2SM -RA BR FEW013 BKN032 OVC038 25/23 A2996 RMK AO2 LTG DSNT N P0004 T02500233
KAEX 221853Z 24006KT 4SM -RA BR BKN009 BKN027 OVC095 25/23 A2996 RMK AO2 LTG DSNT N TSB07E39 SLP149 P0010 T02500233
KAEX 221845Z 26007KT 4SM -RA BR BKN009 BKN027 OVC095 25/24 A2996 RMK AO2 LTG DSNT N TSB07E39 P0009 T02500239
KAEX 221836Z 23004KT 4SM -TSRA BR BKN009 BKN027 OVC095 25/23 A2997 RMK AO2 LTG DSNT N TSB07 P0009 T02500233
KAEX 221828Z 23005KT 3SM -TSRA BR FEW019 BKN043 OVC100 25/23 A2996 RMK AO2 LTG DSNT NE AND SE TSB07 P0008 T02500233
KAEX 221819Z 18005KT 1 3/4SM TSRA BR FEW023 BKN039 OVC060 25/24 A2996 RMK AO2 LTG DSNT NE AND SE TSB07 P0007 T02500239
KAEX 221816Z 16005KT 3SM -TSRA BR FEW023 BKN037 OVC070 25/24 A2996 RMK AO2 LTG DSNT SE TSB07 P0004 T02500239
KAEX 221807Z 13006KT 3SM -TSRA BR BKN023 BKN035 OVC075 26/24 A2997 RMK AO2 LTG DSNT NW TSB07 P0003 T02560239
KAEX 221802Z 17004KT 2SM VCTS RA BR SCT027 BKN041 OVC075 26/24 A2996 RMK AO2 LTG DSNT NW P0002 T02560239
KAEX 221758Z 22006KT 1 1/4SM RA BR SCT027 BKN036 OVC060 26/24 A2996 RMK AO2 LTG DSNT SE AND NW P0002 T02560239
KAEX 221753Z 25010G21KT 3/4SM +RA BR SCT023 BKN028 OVC070 26/23 A2995 RMK AO2 LTG DSNT SE AND NW RAB45 SLP145 P0016 60016 T02560233 10322 20244 58009
KAEX 221747Z 24017G21KT 1 3/4SM RA BKN028 BKN037 BKN045 27/23 A2994 RMK AO2 LTG DSNT SE AND NW RAB45 P0008
KAEX 221735Z 27013G18KT 10SM VCTS FEW024 SCT030 BKN035 28/22 A2995 RMK AO2 LTG DSNT SE AND NW T02830222
KAEX 221653Z 16007KT 10SM FEW025 32/23 A2996 RMK AO2 SLP145 T03170233
KAEX 221553Z 12010KT 10SM CLR 31/24 A2998 RMK AO2 LTG DSNT E SLP153 T03060239
KAEX 221453Z 13011KT 10SM FEW015 SCT070 28/23 A2998 RMK AO2 SLP154 60000 T02830233 53004
KAEX 221353Z 13008KT 10SM FEW065 28/24 A2997 RMK AO2 RAB32E41 SLP152 P0000 T02830239
KAEX 221307Z 15004KT 9SM FEW005 26/23 A2998 RMK AO2 T02560233
KAEX 221253Z 15005KT 8SM FEW018 25/23 A2997 RMK AO2 SLP151 T02500233
KAEX 221249Z 15005KT 8SM SCT018 25/23 A2997 RMK AO2
KAEX 221235Z 18005KT 8SM BKN018 BKN028 BKN050 25/23 A2997 RMK AO2 T02500233
KAEX 221153Z 12006KT 9SM SCT014 24/23 A2996 RMK AO2 SLP147 60000 70001 T02440233 10250 20244 53000
KAEX 221053Z 11007KT 10SM CLR 25/23 A2995 RMK AO2 SLP144 T02500233
KAEX 220953Z 13005KT 10SM CLR 25/23 A2995 RMK AO2 RAE0859 SLP145 P0000 T02500233
KAEX 220853Z 12005KT 10SM -RA FEW095 25/23 A2996 RMK AO2 RAB47 SLP145 P0000 60000 T02500233 56010
KAEX 220753Z 00000KT 10SM CLR 25/23 A2996 RMK AO2 RAB06E23 SLP146 P0000 T02500233
KAEX 220653Z 11005KT 10SM FEW110 25/23 A2997 RMK AO2 SLP149 T02500228
KAEX 220553Z 14003KT 10SM CLR 24/23 A2998 RMK AO2 SLP155 T02440228 10261 20244 403560228 58005
KAEX 220453Z 11004KT 10SM CLR 25/23 A3000 RMK AO2 SLP161 T02500228
KAEX 220353Z 12006KT 10SM CLR 25/23 A3000 RMK AO2 SLP161 T02500233
KAEX 220253Z 12005KT 10SM FEW029 SCT035 26/24 A3000 RMK AO2 SLP161 T02560239 51009
KAEX 220153Z 10003KT 10SM CLR 26/23 A3000 RMK AO2 SLP161 T02560233
KAEX 220053Z 09006KT 10SM BKN031 26/23 A3000 RMK AO2 LTG DSNT NE SLP161 T02560228
KAEX 212353Z 00000KT 10SM CLR 26/22 A2997 RMK AO2 LTG DSNT NE AND E SLP152 60001 T02560222 10356 20250 52015